createdAt,value
2024-01-08T00:00:40.784Z,94364.00
2024-01-08T00:01:40.766Z,94365.00
2024-01-08T00:02:40.727Z,94364.00
2024-01-08T00:03:40.760Z,94363.00
2024-01-08T00:04:40.705Z,94362.00
2024-01-08T00:05:40.871Z,94361.00
2024-01-08T00:06:40.753Z,94362.00
2024-01-08T00:07:40.709Z,94362.00
2024-01-08T00:08:40.714Z,94361.00
2024-01-08T00:09:40.706Z,94362.00
2024-01-08T00:10:40.716Z,94364.00
2024-01-08T00:11:40.728Z,94365.00
2024-01-08T00:12:40.721Z,94366.00
2024-01-08T00:13:40.722Z,94367.00
2024-01-08T00:14:40.718Z,94365.00
2024-01-08T00:15:40.733Z,94364.00
2024-01-08T00:16:40.718Z,94364.00
2024-01-08T00:17:40.804Z,94363.00
2024-01-08T00:18:40.804Z,94367.00
2024-01-08T00:19:40.747Z,94365.00
2024-01-08T00:20:40.743Z,94367.00
2024-01-08T00:21:40.725Z,94366.00
2024-01-08T00:22:40.759Z,94365.00
2024-01-08T00:23:40.741Z,94365.00
2024-01-08T00:24:40.756Z,94365.00
2024-01-08T00:25:40.734Z,94368.00
2024-01-08T00:27:40.743Z,94367.00
2024-01-08T00:28:40.736Z,94366.00
2024-01-08T00:29:40.739Z,94367.00
2024-01-08T00:30:40.766Z,94367.00
2024-01-08T00:31:40.829Z,94367.00
2024-01-08T00:32:40.908Z,94367.00
2024-01-08T00:33:40.814Z,94366.00
2024-01-08T00:34:40.757Z,94369.00
2024-01-08T00:35:40.807Z,94369.00
2024-01-08T00:36:40.749Z,94369.00
2024-01-08T00:37:40.760Z,94368.00
2024-01-08T00:38:40.756Z,94369.00
2024-01-08T00:39:40.755Z,94369.00
2024-01-08T00:40:40.759Z,94371.00
2024-01-08T00:41:40.755Z,94369.00
2024-01-08T00:42:41.124Z,94369.00
2024-01-08T00:43:40.759Z,94373.00
2024-01-08T00:44:40.811Z,94372.00
2024-01-08T00:45:40.776Z,94374.00
2024-01-08T00:46:40.769Z,94374.00
2024-01-08T00:47:40.852Z,94374.00
2024-01-08T00:48:40.782Z,94376.00
2024-01-08T00:49:40.777Z,94378.00
2024-01-08T00:50:40.793Z,94378.00
2024-01-08T00:51:40.782Z,94378.00
2024-01-08T00:52:40.789Z,94379.00
2024-01-08T00:53:40.787Z,94384.00
2024-01-08T00:54:40.781Z,94382.00
2024-01-08T00:55:40.793Z,94383.00
2024-01-08T00:56:40.802Z,94385.00
2024-01-08T00:57:40.793Z,94384.00
2024-01-08T00:58:40.796Z,94382.00
2024-01-08T00:59:40.798Z,94384.00
2024-01-08T01:00:40.811Z,94383.00
2024-01-08T01:01:40.793Z,94383.00
2024-01-08T01:02:40.854Z,94381.00
2024-01-08T01:03:40.981Z,94385.00
2024-01-08T01:04:40.971Z,94387.00
2024-01-08T01:05:40.871Z,94387.00
2024-01-08T01:06:40.811Z,94387.00
2024-01-08T01:07:40.826Z,94391.00
2024-01-08T01:08:40.808Z,94388.00
2024-01-08T01:09:40.816Z,94388.00
2024-01-08T01:10:40.837Z,94389.00
2024-01-08T01:11:40.818Z,94389.00
2024-01-08T01:12:40.843Z,94391.00
2024-01-08T01:13:40.840Z,94390.00
2024-01-08T01:14:40.819Z,94390.00
2024-01-08T01:15:40.827Z,94390.00
2024-01-08T01:16:40.830Z,94394.00
2024-01-08T01:17:40.929Z,94395.00
2024-01-08T01:18:40.915Z,94395.00
2024-01-08T01:19:40.834Z,94397.00
2024-01-08T01:20:40.834Z,94398.00
2024-01-08T01:21:40.840Z,94399.00
2024-01-08T01:22:40.851Z,94398.00
2024-01-08T01:23:40.878Z,94400.00
2024-01-08T01:24:40.853Z,94401.00
2024-01-08T01:25:40.862Z,94402.00
2024-01-08T01:26:40.875Z,94402.00
2024-01-08T01:27:40.889Z,94403.00
2024-01-08T01:28:40.887Z,94404.00
2024-01-08T01:29:40.922Z,94404.00
2024-01-08T01:30:40.954Z,94408.00
2024-01-08T01:31:40.912Z,94406.00
2024-01-08T01:32:41.005Z,94408.00
2024-01-08T01:33:40.981Z,94407.00
2024-01-08T01:34:40.920Z,94407.00
2024-01-08T01:35:40.970Z,94408.00
2024-01-08T01:36:41.043Z,94409.00
2024-01-08T01:37:40.969Z,94409.00
2024-01-08T01:38:41.029Z,94411.00
2024-01-08T01:39:40.935Z,94414.00
2024-01-08T01:40:40.934Z,94415.00
2024-01-08T01:41:41.027Z,94413.00
2024-01-08T01:42:40.980Z,94414.00
2024-01-08T01:43:40.978Z,94415.00
2024-01-08T01:44:41.033Z,94416.00
2024-01-08T01:45:40.989Z,94415.00
2024-01-08T01:46:41.012Z,94417.00
2024-01-08T01:47:41.152Z,94420.00
2024-01-08T01:48:41.121Z,94421.00
2024-01-08T01:49:41.052Z,94421.00
2024-01-08T01:50:41.074Z,94420.00
2024-01-08T01:51:41.064Z,94422.00
2024-01-08T01:52:41.053Z,94421.00
2024-01-08T01:53:41.057Z,94418.00
2024-01-08T01:54:41.092Z,94419.00
2024-01-08T01:55:41.089Z,94417.00
2024-01-08T01:56:41.091Z,94417.00
2024-01-08T01:57:41.114Z,94417.00
2024-01-08T01:58:41.111Z,94420.00
2024-01-08T01:59:41.200Z,94417.00
2024-01-08T02:00:41.155Z,94417.00
2024-01-08T02:01:41.138Z,94418.00
2024-01-08T02:02:41.247Z,94418.00
2024-01-08T02:03:41.191Z,94418.00
2024-01-08T02:04:41.245Z,94419.00
2024-01-08T02:05:41.209Z,94417.00
2024-01-08T02:06:41.174Z,94419.00
2024-01-08T02:07:41.181Z,94420.00
2024-01-08T02:08:41.205Z,94417.00
2024-01-08T02:09:41.206Z,94419.00
2024-01-08T02:10:41.322Z,94419.00
2024-01-08T02:11:41.309Z,94422.00
2024-01-08T02:12:41.282Z,94422.00
2024-01-08T02:13:41.292Z,94423.00
2024-01-08T02:14:41.391Z,94421.00
2024-01-08T02:15:41.316Z,94420.00
2024-01-08T02:16:41.310Z,94418.00
2024-01-08T02:17:41.357Z,94418.00
2024-01-08T02:18:41.396Z,94419.00
2024-01-08T02:19:41.337Z,94419.00
2024-01-08T02:20:41.331Z,94421.00
2024-01-08T02:21:41.335Z,94419.00
2024-01-08T02:22:41.344Z,94419.00
2024-01-08T02:23:41.357Z,94422.00
2024-01-08T02:24:41.348Z,94423.00
2024-01-08T02:25:41.371Z,94424.00
2024-01-08T02:26:41.416Z,94424.00
2024-01-08T02:27:41.374Z,94422.00
2024-01-08T02:28:41.382Z,94424.00
2024-01-08T02:29:41.438Z,94424.00
2024-01-08T02:30:41.457Z,94423.00
2024-01-08T02:31:41.454Z,94422.00
2024-01-08T02:32:41.517Z,94425.00
2024-01-08T02:33:41.433Z,94421.00
2024-01-08T02:34:41.459Z,94422.00
2024-01-08T02:35:41.446Z,94421.00
2024-01-08T02:36:41.453Z,94420.00
2024-01-08T02:37:41.469Z,94422.00
2024-01-08T02:38:41.466Z,94421.00
2024-01-08T02:39:41.469Z,94421.00
2024-01-08T02:40:41.474Z,94420.00
2024-01-08T02:41:41.484Z,94422.00
2024-01-08T02:42:41.496Z,94422.00
2024-01-08T02:43:41.498Z,94423.00
2024-01-08T02:44:41.494Z,94422.00
2024-01-08T02:45:41.499Z,94424.00
2024-01-08T02:46:41.517Z,94424.00
2024-01-08T02:47:41.858Z,94425.00
2024-01-08T02:48:41.616Z,94424.00
2024-01-08T02:49:41.509Z,94425.00
2024-01-08T02:50:41.526Z,94422.00
2024-01-08T02:51:41.522Z,94422.00
2024-01-08T02:52:41.534Z,94422.00
2024-01-08T02:53:41.549Z,94424.00
2024-01-08T02:54:41.534Z,94425.00
2024-01-08T02:55:41.532Z,94426.00
2024-01-08T02:56:41.565Z,94424.00
2024-01-08T02:57:41.569Z,94426.00
2024-01-08T02:58:41.578Z,94425.00
2024-01-08T02:59:41.560Z,94425.00
2024-01-08T03:00:41.596Z,94424.00
2024-01-08T03:01:41.578Z,94426.00
2024-01-08T03:02:41.621Z,94429.00
2024-01-08T03:03:41.635Z,94429.00
2024-01-08T03:04:41.607Z,94430.00
2024-01-08T03:05:41.653Z,94430.00
2024-01-08T03:06:41.658Z,94432.00
2024-01-08T03:07:41.628Z,94433.00
2024-01-08T03:08:41.680Z,94433.00
2024-01-08T03:09:41.646Z,94434.00
2024-01-08T03:10:41.645Z,94435.00
2024-01-08T03:11:41.664Z,94434.00
2024-01-08T03:12:41.664Z,94437.00
2024-01-08T03:13:41.680Z,94436.00
2024-01-08T03:14:41.698Z,94436.00
2024-01-08T03:15:41.709Z,94437.00
2024-01-08T03:16:41.743Z,94438.00
2024-01-08T03:17:41.920Z,94437.00
2024-01-08T03:18:41.817Z,94439.00
2024-01-08T03:19:41.721Z,94438.00
2024-01-08T03:20:41.812Z,94440.00
2024-01-08T03:21:41.769Z,94440.00
2024-01-08T03:22:41.783Z,94438.00
2024-01-08T03:23:41.896Z,94437.00
2024-01-08T03:24:41.843Z,94438.00
2024-01-08T03:25:41.818Z,94439.00
2024-01-08T03:26:41.853Z,94439.00
2024-01-08T03:27:41.815Z,94442.00
2024-01-08T03:28:41.823Z,94441.00
2024-01-08T03:29:41.842Z,94442.00
2024-01-08T03:30:41.951Z,94443.00
2024-01-08T03:31:41.846Z,94445.00
2024-01-08T03:32:42.048Z,94443.00
2024-01-08T03:33:41.902Z,94443.00
2024-01-08T03:34:41.854Z,94444.00
2024-01-08T03:35:41.897Z,94444.00
2024-01-08T03:36:41.876Z,94447.00
2024-01-08T03:37:41.884Z,94447.00
2024-01-08T03:38:41.890Z,94448.00
2024-01-08T03:39:41.892Z,94449.00
2024-01-08T03:40:41.892Z,94449.00
2024-01-08T03:41:41.897Z,94450.00
2024-01-08T03:42:41.909Z,94453.00
2024-01-08T03:43:41.912Z,94451.00
2024-01-08T03:44:41.903Z,94452.00
2024-01-08T03:45:41.914Z,94452.00
2024-01-08T03:46:41.932Z,94452.00
2024-01-08T03:47:42.080Z,94451.00
2024-01-08T03:48:42.027Z,94451.00
2024-01-08T03:49:41.922Z,94451.00
2024-01-08T03:50:42.002Z,94452.00
2024-01-08T03:51:41.943Z,94451.00
2024-01-08T03:52:41.944Z,94453.00
2024-01-08T03:53:41.981Z,94456.00
2024-01-08T03:54:41.948Z,94455.00
2024-01-08T03:55:41.970Z,94455.00
2024-01-08T03:56:42.035Z,94455.00
2024-01-08T03:57:41.968Z,94454.00
2024-01-08T03:58:41.992Z,94456.00
2024-01-08T03:59:42.019Z,94454.00
2024-01-08T04:00:42.053Z,94453.00
2024-01-08T04:01:42.002Z,94454.00
2024-01-08T04:02:42.257Z,94452.00
2024-01-08T04:03:42.060Z,94455.00
2024-01-08T04:04:42.009Z,94455.00
2024-01-08T04:05:42.112Z,94457.00
2024-01-08T04:06:42.072Z,94457.00
2024-01-08T04:07:42.034Z,94457.00
2024-01-08T04:08:42.189Z,94461.00
2024-01-08T04:09:42.052Z,94458.00
2024-01-08T04:10:42.079Z,94461.00
2024-01-08T04:11:42.082Z,94460.00
2024-01-08T04:12:42.114Z,94461.00
2024-01-08T04:13:42.122Z,94460.00
2024-01-08T04:14:42.169Z,94461.00
2024-01-08T04:15:42.143Z,94463.00
2024-01-08T04:16:42.187Z,94466.00
2024-01-08T04:17:42.274Z,94464.00
2024-01-08T04:18:42.219Z,94466.00
2024-01-08T04:19:42.157Z,94470.00
2024-01-08T04:20:42.225Z,94470.00
2024-01-08T04:21:42.168Z,94472.00
2024-01-08T04:22:42.181Z,94471.00
2024-01-08T04:23:42.192Z,94475.00
2024-01-08T04:24:42.198Z,94477.00
2024-01-08T04:25:42.199Z,94478.00
2024-01-08T04:26:42.198Z,94480.00
2024-01-08T04:27:49.402Z,94482.00
2024-01-08T04:28:49.498Z,94483.00
2024-01-08T04:29:49.406Z,94483.00
2024-01-08T04:30:49.556Z,94484.00
2024-01-08T04:31:56.774Z,94484.00
2024-01-08T04:32:56.866Z,94484.00
2024-01-08T04:33:56.851Z,94484.00
2024-01-08T04:34:56.820Z,94485.00
2024-01-08T04:35:56.776Z,94486.00
2024-01-08T04:36:56.775Z,94488.00
2024-01-08T04:37:56.786Z,94488.00
2024-01-08T04:38:56.778Z,94491.00
2024-01-08T04:39:56.813Z,94491.00
2024-01-08T04:40:56.803Z,94491.00
2024-01-08T04:41:56.790Z,94492.00
2024-01-08T04:42:56.784Z,94493.00
2024-01-08T04:43:56.828Z,94492.00
2024-01-08T04:44:56.785Z,94493.00
2024-01-08T04:45:56.798Z,94494.00
2024-01-08T04:46:56.834Z,94496.00
2024-01-08T04:47:56.873Z,94495.00
2024-01-08T04:48:56.832Z,94497.00
2024-01-08T04:49:56.853Z,94498.00
2024-01-08T04:50:56.788Z,94499.00
2024-01-08T04:51:56.791Z,94500.00
2024-01-08T04:52:56.812Z,94502.00
2024-01-08T04:53:56.810Z,94504.00
2024-01-08T04:54:56.811Z,94505.00
2024-01-08T04:55:56.824Z,94502.00
2024-01-08T04:56:56.817Z,94504.00
2024-01-08T04:57:56.806Z,94502.00
2024-01-08T04:58:56.950Z,94502.00
2024-01-08T04:59:56.803Z,94503.00
2024-01-08T05:00:56.813Z,94502.00
2024-01-08T05:01:56.877Z,94505.00
2024-01-08T05:02:56.827Z,94505.00
2024-01-08T05:03:56.816Z,94506.00
2024-01-08T05:04:56.876Z,94507.00
2024-01-08T05:05:56.868Z,94507.00
2024-01-08T05:06:56.809Z,94507.00
2024-01-08T05:07:56.835Z,94506.00
2024-01-08T05:08:56.804Z,94507.00
2024-01-08T05:09:56.808Z,94508.00
2024-01-08T05:10:56.870Z,94510.00
2024-01-08T05:11:56.811Z,94506.00
2024-01-08T05:12:56.826Z,94506.00
2024-01-08T05:13:56.836Z,94508.00
2024-01-08T05:14:56.817Z,94510.00
2024-01-08T05:15:56.818Z,94510.00
2024-01-08T05:16:56.881Z,94513.00
2024-01-08T05:17:57.000Z,94513.00
2024-01-08T05:18:56.937Z,94513.00
2024-01-08T05:19:56.873Z,94513.00
2024-01-08T05:20:56.834Z,94513.00
2024-01-08T05:21:56.835Z,94515.00
2024-01-08T05:22:56.873Z,94517.00
2024-01-08T05:23:56.832Z,94518.00
2024-01-08T05:24:56.845Z,94518.00
2024-01-08T05:25:56.880Z,94520.00
2024-01-08T05:26:56.842Z,94521.00
2024-01-08T05:27:56.867Z,94522.00
2024-01-08T05:28:56.892Z,94524.00
2024-01-08T05:29:56.845Z,94522.00
2024-01-08T05:30:57.068Z,94523.00
2024-01-08T05:31:56.874Z,94526.00
2024-01-08T05:32:56.944Z,94524.00
2024-01-08T05:33:56.887Z,94525.00
2024-01-08T05:34:56.883Z,94523.00
2024-01-08T05:35:56.864Z,94525.00
2024-01-08T05:36:56.883Z,94526.00
2024-01-08T05:37:56.888Z,94528.00
2024-01-08T05:38:56.871Z,94528.00
2024-01-08T05:39:56.875Z,94529.00
2024-01-08T05:40:57.177Z,94527.00
2024-01-08T05:41:56.893Z,94529.00
2024-01-08T05:42:56.874Z,94528.00
2024-01-08T05:43:56.928Z,94528.00
2024-01-08T05:44:56.889Z,94530.00
2024-01-08T05:45:56.888Z,94531.00
2024-01-08T05:46:56.919Z,94534.00
2024-01-08T05:47:57.014Z,94533.00
2024-01-08T05:48:56.997Z,94536.00
2024-01-08T05:49:56.915Z,94536.00
2024-01-08T05:50:56.906Z,94534.00
2024-01-08T05:51:56.902Z,94535.00
2024-01-08T05:52:56.985Z,94538.00
2024-01-08T05:53:56.902Z,94537.00
2024-01-08T05:54:56.909Z,94539.00
2024-01-08T05:55:56.937Z,94539.00
2024-01-08T05:56:56.913Z,94541.00
2024-01-08T05:57:56.906Z,94542.00
2024-01-08T05:58:56.931Z,94544.00
2024-01-08T05:59:56.910Z,94545.00
2024-01-08T06:00:56.907Z,94548.00
2024-01-08T06:01:56.932Z,94545.00
2024-01-08T06:02:56.930Z,94546.00
2024-01-08T06:03:56.953Z,94546.00
2024-01-08T06:04:56.955Z,94546.00
2024-01-08T06:05:57.093Z,94545.00
2024-01-08T06:06:56.940Z,94548.00
2024-01-08T06:07:56.961Z,94544.00
2024-01-08T06:08:56.926Z,94546.00
2024-01-08T06:09:56.932Z,94545.00
2024-01-08T06:10:56.963Z,94545.00
2024-01-08T06:11:56.934Z,94545.00
2024-01-08T06:12:56.971Z,94545.00
2024-01-08T06:13:57.974Z,94545.00
2024-01-08T06:14:57.003Z,94545.00
2024-01-08T06:15:56.937Z,94545.00
2024-01-08T06:16:57.000Z,94548.00
2024-01-08T06:17:56.977Z,94546.00
2024-01-08T06:18:56.987Z,94548.00
2024-01-08T06:19:56.982Z,94550.00
2024-01-08T06:20:56.952Z,94550.00
2024-01-08T06:21:56.946Z,94552.00
2024-01-08T06:22:57.030Z,94555.00
2024-01-08T06:23:56.965Z,94553.00
2024-01-08T06:24:56.963Z,94553.00
2024-01-08T06:25:57.039Z,94553.00
2024-01-08T06:26:56.959Z,94554.00
2024-01-08T06:27:56.965Z,94551.00
2024-01-08T06:28:57.023Z,94554.00
2024-01-08T06:29:56.975Z,94554.00
2024-01-08T06:30:57.080Z,94557.00
2024-01-08T06:31:57.074Z,94558.00
2024-01-08T06:32:57.162Z,94552.00
2024-01-08T06:33:57.115Z,94557.00
2024-01-08T06:34:57.019Z,94558.00
2024-01-08T06:35:57.081Z,94556.00
2024-01-08T06:36:57.010Z,94559.00
2024-01-08T06:37:57.056Z,94559.00
2024-01-08T06:38:56.991Z,94563.00
2024-01-08T06:39:56.985Z,94562.00
2024-01-08T06:40:57.166Z,94563.00
2024-01-08T06:41:57.976Z,94566.00
2024-01-08T06:43:01.301Z,94567.00
2024-01-08T06:43:58.037Z,94565.00
2024-01-08T06:44:56.997Z,94569.00
2024-01-08T06:45:57.018Z,94572.00
2024-01-08T06:46:57.078Z,94569.00
2024-01-08T06:47:57.091Z,94572.00
2024-01-08T06:48:57.090Z,94572.00
2024-01-08T06:49:57.038Z,94574.00
2024-01-08T06:50:56.996Z,94573.00
2024-01-08T06:51:57.028Z,94574.00
2024-01-08T06:52:57.501Z,94573.00
2024-01-08T06:53:57.043Z,94574.00
2024-01-08T06:54:57.010Z,94576.00
2024-01-08T06:55:57.022Z,94576.00
2024-01-08T06:56:57.090Z,94576.00
2024-01-08T06:57:57.038Z,94577.00
2024-01-08T06:58:57.052Z,94576.00
2024-01-08T06:59:57.086Z,94579.00
2024-01-08T07:00:57.087Z,94578.00
2024-01-08T07:01:57.473Z,94579.00
2024-01-08T07:02:57.289Z,94579.00
2024-01-08T07:03:57.189Z,94582.00
2024-01-08T07:04:57.412Z,94583.00
2024-01-08T07:05:57.452Z,94585.00
2024-01-08T07:06:57.367Z,94584.00
2024-01-08T07:07:57.576Z,94585.00
2024-01-08T07:08:57.509Z,94587.00
2024-01-08T07:09:57.539Z,94588.00
2024-01-08T07:10:57.664Z,94588.00
2024-01-08T07:11:57.713Z,94591.00
2024-01-08T07:12:57.750Z,94592.00
2024-01-08T07:13:58.277Z,94592.00
2024-01-08T07:14:57.899Z,94590.00
2024-01-08T07:15:57.963Z,94593.00
2024-01-08T07:16:58.074Z,94594.00
2024-01-08T07:17:59.962Z,94593.00
2024-01-08T07:18:58.188Z,94594.00
2024-01-08T07:19:58.263Z,94597.00
2024-01-08T07:20:58.279Z,94597.00
2024-01-08T07:21:58.377Z,94598.00
2024-01-08T07:22:58.485Z,94601.00
2024-01-08T07:23:58.551Z,94602.00
2024-01-08T07:24:58.575Z,94606.00
2024-01-08T07:25:58.679Z,94604.00
2024-01-08T07:26:58.693Z,94611.00
2024-01-08T07:27:58.779Z,94611.00
2024-01-08T07:28:58.855Z,94609.00
2024-01-08T07:29:58.917Z,94613.00
2024-01-08T07:30:59.089Z,94615.00
2024-01-08T07:31:59.109Z,94615.00
2024-01-08T07:32:59.207Z,94617.00
2024-01-08T07:33:59.333Z,94619.00
2024-01-08T07:34:59.332Z,94620.00
2024-01-08T07:35:59.328Z,94623.00
2024-01-08T07:36:59.401Z,94625.00
2024-01-08T07:38:00.058Z,94631.00
2024-01-08T07:39:00.011Z,94632.00
2024-01-08T07:39:59.615Z,94633.00
2024-01-08T07:40:59.669Z,94630.00
2024-01-08T07:41:59.712Z,94633.00
2024-01-08T07:42:59.961Z,94633.00
2024-01-08T07:43:59.898Z,94635.00
2024-01-08T07:45:00.062Z,94636.00
2024-01-08T07:45:59.902Z,94636.00
2024-01-08T07:47:00.532Z,94638.00
2024-01-08T07:48:00.371Z,94640.00
2024-01-08T07:49:00.043Z,94641.00
2024-01-08T07:49:59.996Z,94642.00
2024-01-08T07:51:00.060Z,94642.00
2024-01-08T07:52:00.011Z,94643.00
2024-01-08T07:53:00.055Z,94642.00
2024-01-08T07:54:00.088Z,94649.00
2024-01-08T07:55:00.047Z,94648.00
2024-01-08T07:56:00.121Z,94648.00
2024-01-08T07:57:02.835Z,94650.00
2024-01-08T07:58:00.077Z,94652.00
2024-01-08T07:59:00.110Z,94648.00
2024-01-08T08:00:00.095Z,94651.00
2024-01-08T08:01:00.122Z,94653.00
2024-01-08T08:02:00.315Z,94653.00
2024-01-08T08:03:00.175Z,94656.00
2024-01-08T08:04:03.300Z,94655.00
2024-01-08T08:05:00.149Z,94656.00
2024-01-08T08:06:00.291Z,94657.00
2024-01-08T08:07:00.156Z,94659.00
2024-01-08T08:08:00.202Z,94662.00
2024-01-08T08:09:00.132Z,94662.00
2024-01-08T10:24:02.733Z,94711.00
2024-01-08T10:24:25.125Z,94713.00
2024-01-08T10:25:25.067Z,94712.00
2024-01-08T10:26:25.151Z,94709.00
2024-01-08T10:27:25.055Z,94710.00
2024-01-08T10:28:25.068Z,94710.00
2024-01-08T10:29:25.099Z,94708.00
2024-01-08T10:30:25.092Z,94710.00
2024-01-08T10:31:25.073Z,94706.00
2024-01-08T10:32:25.217Z,94709.00
2024-01-08T10:33:25.632Z,94709.00
2024-01-08T10:34:25.114Z,94708.00
2024-01-08T10:35:25.090Z,94712.00
2024-01-08T10:36:25.064Z,94713.00
2024-01-08T10:37:25.061Z,94713.00
2024-01-08T10:38:25.540Z,94710.00
2024-01-08T10:39:30.906Z,94710.00
2024-01-08T10:40:26.125Z,94709.00
2024-01-08T10:41:25.148Z,94713.00
2024-01-08T10:42:25.121Z,94713.00
2024-01-08T10:43:25.479Z,94707.00
2024-01-08T10:44:25.225Z,94709.00
2024-01-08T10:45:25.119Z,94709.00
2024-01-08T10:46:25.120Z,94709.00
2024-01-08T10:47:28.710Z,94708.00
2024-01-08T10:48:25.602Z,94704.00
2024-01-08T10:49:25.185Z,94706.00
2024-01-08T10:50:25.183Z,94704.00
2024-01-08T10:51:25.127Z,94705.00
2024-01-08T10:52:25.155Z,94701.00
2024-01-08T10:53:25.520Z,94701.00
2024-01-08T10:54:25.145Z,94697.00
2024-01-08T10:55:25.152Z,94698.00
2024-01-08T10:56:25.156Z,94698.00
2024-01-08T10:57:25.145Z,94699.00
2024-01-08T10:58:25.153Z,94699.00
2024-01-08T10:59:25.210Z,94698.00
2024-01-08T11:00:25.154Z,94696.00
2024-01-08T11:01:25.144Z,94697.00
2024-01-08T11:02:25.197Z,94697.00
2024-01-08T11:03:25.215Z,94698.00
2024-01-08T11:04:25.194Z,94695.00
2024-01-08T11:05:25.326Z,94697.00
2024-01-08T11:06:25.207Z,94699.00
2024-01-08T11:07:25.153Z,94697.00
2024-01-08T11:08:25.243Z,94695.00
2024-01-08T11:09:25.237Z,94697.00
2024-01-08T11:10:25.199Z,94696.00
2024-01-08T11:11:25.259Z,94697.00
2024-01-08T11:12:25.312Z,94696.00
2024-01-08T11:13:25.400Z,94696.00
2024-01-08T11:14:25.500Z,94696.00
2024-01-08T11:15:25.504Z,94696.00
2024-01-08T11:16:25.604Z,94694.00
2024-01-08T11:17:25.768Z,94694.00
2024-01-08T11:18:29.390Z,94695.00
2024-01-08T11:19:26.758Z,94698.00
2024-01-08T11:20:25.737Z,94698.00
2024-01-08T11:21:25.728Z,94701.00
2024-01-08T11:22:25.771Z,94700.00
2024-01-08T11:23:25.811Z,94702.00
2024-01-08T11:24:25.718Z,94705.00
2024-01-08T11:25:25.729Z,94706.00
2024-01-08T11:26:25.745Z,94705.00
2024-01-08T11:27:25.735Z,94703.00
2024-01-08T11:28:25.729Z,94705.00
2024-01-08T11:29:26.039Z,94706.00
2024-01-08T11:30:25.916Z,94704.00
2024-01-08T11:31:25.911Z,94707.00
2024-01-08T11:32:26.010Z,94704.00
2024-01-08T11:33:26.556Z,94704.00
2024-01-08T11:34:26.173Z,94706.00
2024-01-08T11:35:26.128Z,94705.00
2024-01-08T11:36:26.162Z,94703.00
2024-01-08T11:37:26.223Z,94703.00
2024-01-08T11:38:26.383Z,94701.00
2024-01-08T11:39:26.365Z,94703.00
2024-01-08T11:40:26.415Z,94704.00
2024-01-08T11:41:26.428Z,94701.00
2024-01-08T11:42:26.426Z,94701.00
2024-01-08T11:43:26.518Z,94701.00
2024-01-08T11:44:26.541Z,94703.00
2024-01-08T11:45:26.480Z,94704.00
2024-01-08T11:46:26.461Z,94703.00
2024-01-08T11:47:26.499Z,94703.00
2024-01-08T11:48:26.643Z,94702.00
2024-01-08T11:49:26.524Z,94703.00
2024-01-08T11:50:26.572Z,94703.00
2024-01-08T11:51:26.561Z,94703.00
2024-01-08T11:52:26.596Z,94704.00
2024-01-08T11:53:26.650Z,94704.00
2024-01-08T11:54:26.649Z,94705.00
2024-01-08T11:55:26.688Z,94703.00
2024-01-08T11:56:26.825Z,94702.00
2024-01-08T11:57:26.838Z,94704.00
2024-01-08T11:58:26.802Z,94702.00
2024-01-08T11:59:26.929Z,94702.00
2024-01-08T12:00:26.866Z,94700.00
2024-01-08T12:01:26.906Z,94701.00
2024-01-08T12:02:27.027Z,94701.00
2024-01-08T12:03:27.053Z,94701.00
2024-01-08T12:04:27.028Z,94702.00
2024-01-08T12:05:27.146Z,94703.00
2024-01-08T12:06:27.222Z,94706.00
2024-01-08T12:07:27.169Z,94704.00
2024-01-08T12:08:27.238Z,94704.00
2024-01-08T12:09:27.336Z,94704.00
2024-01-08T12:10:27.292Z,94706.00
2024-01-08T12:11:27.398Z,94706.00
2024-01-08T12:12:27.395Z,94708.00
2024-01-08T12:13:27.436Z,94707.00
2024-01-08T12:14:27.480Z,94707.00
2024-01-08T12:15:27.542Z,94708.00
2024-01-08T12:16:27.577Z,94707.00
2024-01-08T12:17:27.725Z,94711.00
2024-01-08T12:18:27.821Z,94712.00
2024-01-08T12:19:27.794Z,94711.00
2024-01-08T12:20:27.803Z,94708.00
2024-01-08T12:21:36.748Z,94710.00
2024-01-08T12:22:28.849Z,94708.00
2024-01-08T12:23:27.909Z,94709.00
2024-01-08T12:24:27.862Z,94709.00
2024-01-08T12:25:27.897Z,94707.00
2024-01-08T12:26:27.907Z,94706.00
2024-01-08T12:27:27.876Z,94704.00
2024-01-08T12:28:27.839Z,94706.00
2024-01-08T12:29:27.867Z,94703.00
2024-01-08T12:30:27.924Z,94706.00
2024-01-08T12:31:27.842Z,94706.00
2024-01-08T12:32:27.965Z,94707.00
2024-01-08T12:33:28.060Z,94705.00
2024-01-08T12:34:28.054Z,94707.00
2024-01-08T12:35:28.154Z,94707.00
2024-01-08T12:36:28.113Z,94707.00
2024-01-08T12:37:28.172Z,94704.00
2024-01-08T12:38:28.239Z,94709.00
2024-01-08T12:39:28.292Z,94709.00
2024-01-08T12:40:28.342Z,94710.00
2024-01-08T12:41:28.424Z,94705.00
2024-01-08T12:42:28.462Z,94710.00
2024-01-08T12:43:28.531Z,94707.00
2024-01-08T12:44:29.067Z,94709.00
2024-01-08T12:45:28.647Z,94708.00
2024-01-08T12:46:28.736Z,94708.00
2024-01-08T12:47:28.906Z,94711.00
2024-01-08T12:48:29.003Z,94710.00
2024-01-08T12:49:28.990Z,94709.00
2024-01-08T12:50:29.007Z,94709.00
2024-01-08T12:51:29.033Z,94711.00
2024-01-08T12:52:29.088Z,94709.00
2024-01-08T12:53:29.160Z,94712.00
2024-01-08T12:54:29.244Z,94711.00
2024-01-08T12:55:29.286Z,94712.00
2024-01-08T12:56:29.361Z,94712.00
2024-01-08T12:57:29.444Z,94710.00
2024-01-08T12:58:29.474Z,94713.00
2024-01-08T12:59:29.615Z,94714.00
2024-01-08T13:00:29.613Z,94714.00
2024-01-08T13:01:29.705Z,94715.00
2024-01-08T13:02:29.870Z,94714.00
2024-01-08T13:03:29.815Z,94716.00
2024-01-08T13:04:30.016Z,94714.00
2024-01-08T13:05:30.063Z,94714.00
2024-01-08T13:06:30.816Z,94715.00
2024-01-08T13:07:30.072Z,94715.00
2024-01-08T13:08:30.148Z,94711.00
2024-01-08T13:09:30.212Z,94715.00
2024-01-08T13:10:30.264Z,94715.00
2024-01-08T13:11:30.402Z,94712.00
2024-01-08T13:12:30.400Z,94717.00
2024-01-08T13:13:30.469Z,94715.00
2024-01-08T13:14:30.550Z,94715.00
2024-01-08T13:15:30.608Z,94719.00
2024-01-08T13:16:30.725Z,94718.00
2024-01-08T13:17:30.783Z,94722.00
2024-01-08T13:18:31.045Z,94719.00
2024-01-08T13:19:30.891Z,94721.00
2024-01-08T13:20:31.084Z,94722.00
2024-01-08T13:21:31.015Z,94724.00
2024-01-08T13:22:31.093Z,94724.00
2024-01-08T13:23:31.174Z,94724.00
2024-01-08T13:24:31.303Z,94724.00
2024-01-08T13:25:31.543Z,94724.00
2024-01-08T13:26:31.388Z,94723.00
2024-01-08T13:27:31.450Z,94727.00
2024-01-08T13:28:31.506Z,94726.00
2024-01-08T13:29:31.605Z,94727.00
2024-01-08T13:30:31.680Z,94726.00
2024-01-08T13:31:31.716Z,94727.00
2024-01-08T13:32:31.832Z,94729.00
2024-01-08T13:33:31.929Z,94730.00
2024-01-08T13:34:32.051Z,94732.00
2024-01-08T13:35:32.035Z,94734.00
2024-01-08T13:36:32.069Z,94735.00
2024-01-08T13:37:32.136Z,94736.00
2024-01-08T13:38:32.266Z,94741.00
2024-01-08T13:39:32.322Z,94740.00
2024-01-08T13:40:32.364Z,94743.00
2024-01-08T13:41:32.486Z,94741.00
2024-01-08T13:42:32.493Z,94743.00
2024-01-08T13:43:32.548Z,94743.00
2024-01-08T13:44:32.658Z,94748.00
2024-01-08T13:45:32.701Z,94749.00
2024-01-08T13:46:32.812Z,94750.00
2024-01-08T13:47:32.945Z,94747.00
2024-01-08T13:48:33.335Z,94750.00
2024-01-08T13:49:32.949Z,94750.00
2024-01-08T13:50:32.980Z,94751.00
2024-01-08T13:51:33.033Z,94752.00
2024-01-08T13:52:33.065Z,94752.00
2024-01-08T13:53:33.119Z,94752.00
2024-01-08T13:54:33.174Z,94755.00
2024-01-08T13:55:33.187Z,94754.00
2024-01-08T13:56:33.262Z,94755.00
2024-01-08T13:57:33.226Z,94756.00
2024-01-08T13:58:33.230Z,94759.00
2024-01-08T13:59:33.264Z,94762.00